Time;durP1;ratioP1;P1;durP2;ratioP2;P2;SDS_P1;SDS_P2;PMS_P1;PMS_P2;Temp;Humidity;BMP_temperature;BMP_pressure;BME280_temperature;BME280_humidity;BME280_pressure;Samples;Min_cycle;Max_cycle;Signal;HPM_P1;HPM_P2
2023/03/12 00:00:18;;;;;;;18.67;9.00;;;;;;;;;;5018522;28;20033;-86
2023/03/12 00:02:44;;;;;;;16.83;8.63;;;;;;;;;;5018136;28;20037;-84
2023/03/12 00:05:09;;;;;;;21.87;9.33;;;;;;;;;;5017985;28;20022;-87
2023/03/12 00:07:35;;;;;;;16.13;9.47;;;;;;;;;;5014677;28;20054;-85
2023/03/12 00:10:02;;;;;;;19.93;10.30;;;;;;;;;;5016665;28;20426;-87
2023/03/12 00:12:27;;;;;;;20.47;9.63;;;;;;;;;;5015516;28;20113;-86
2023/03/12 00:14:53;;;;;;;25.27;9.53;;;;;;;;;;5016062;28;20030;-86
2023/03/12 00:17:18;;;;;;;18.37;8.50;;;;;;;;;;5016531;28;20037;-86
2023/03/12 00:19:44;;;;;;;23.43;9.20;;;;;;;;;;5017055;28;20466;-86
2023/03/12 00:22:09;;;;;;;22.47;10.63;;;;;;;;;;5016749;28;20030;-85
2023/03/12 00:24:35;;;;;;;20.60;9.93;;;;;;;;;;5018180;28;20132;-85
2023/03/12 00:27:00;;;;;;;20.03;10.03;;;;;;;;;;5017187;28;20117;-83
2023/03/12 00:29:26;;;;;;;20.53;9.23;;;;;;;;;;5015772;28;20090;-85
2023/03/12 00:31:53;;;;;;;15.20;8.57;;;;;;;;;;5015451;28;20001;-86
2023/03/12 00:34:18;;;;;;;16.20;8.40;;;;;;;;;;5000151;28;20038;-86
2023/03/12 00:36:44;;;;;;;19.07;8.57;;;;;;;;;;5014388;28;20014;-85
2023/03/12 00:39:09;;;;;;;20.57;8.97;;;;;;;;;;5015990;28;20022;-86
2023/03/12 00:41:35;;;;;;;20.83;9.60;;;;;;;;;;5015165;28;20077;-82
2023/03/12 00:44:00;;;;;;;19.73;9.17;;;;;;;;;;5016513;28;20049;-87
2023/03/12 00:46:26;;;;;;;25.40;9.53;;;;;;;;;;5016799;28;20037;-86
2023/03/12 00:48:52;;;;;;;18.43;8.13;;;;;;;;;;5014989;28;20087;-85
2023/03/12 00:51:17;;;;;;;15.30;8.77;;;;;;;;;;5015273;28;20121;-86
2023/03/12 00:53:43;;;;;;;21.43;9.57;;;;;;;;;;5015832;28;20048;-83
2023/03/12 00:56:09;;;;;;;22.80;9.27;;;;;;;;;;5016929;28;20221;-84
2023/03/12 00:58:35;;;;;;;16.03;9.43;;;;;;;;;;5018562;28;20029;-82
2023/03/12 01:01:00;;;;;;;20.77;9.17;;;;;;;;;;5025553;28;20033;-85
2023/03/12 01:03:26;;;;;;;15.47;8.13;;;;;;;;;;5018591;28;20057;-84
2023/03/12 01:05:54;;;;;;;20.60;10.73;;;;;;;;;;5015092;28;20497;-80
2023/03/12 01:08:22;;;;;;;19.97;8.97;;;;;;;;;;5014390;28;20025;-83
2023/03/12 01:10:47;;;;;;;17.67;9.10;;;;;;;;;;5017740;28;20065;-86
2023/03/12 01:13:13;;;;;;;18.73;8.20;;;;;;;;;;5015809;28;20021;-84
2023/03/12 01:15:38;;;;;;;17.03;7.73;;;;;;;;;;5014973;28;20021;-87
2023/03/12 01:18:04;;;;;;;20.27;9.53;;;;;;;;;;5016133;28;20022;-80
2023/03/12 01:20:30;;;;;;;22.73;8.30;;;;;;;;;;5016659;28;20030;-83
2023/03/12 01:22:55;;;;;;;20.00;8.47;;;;;;;;;;5016092;28;20456;-84
2023/03/12 01:25:21;;;;;;;18.63;9.33;;;;;;;;;;5015993;28;20500;-84
2023/03/12 01:27:46;;;;;;;17.20;8.30;;;;;;;;;;5015026;28;20014;-85
2023/03/12 01:30:13;;;;;;;21.63;9.73;;;;;;;;;;5015808;28;20033;-82
2023/03/12 01:32:38;;;;;;;22.60;9.73;;;;;;;;;;5014955;28;20402;-84
2023/03/12 01:35:04;;;;;;;21.23;8.83;;;;;;;;;;5017183;28;20025;-85
2023/03/12 01:37:31;;;;;;;17.30;7.37;;;;;;;;;;5015003;28;20022;-85
2023/03/12 01:39:56;;;;;;;17.87;8.33;;;;;;;;;;5001551;28;20022;-84
2023/03/12 01:42:22;;;;;;;17.13;8.00;;;;;;;;;;5001802;28;20040;-84
2023/03/12 01:44:55;;;;;;;15.87;7.93;;;;;;;;;;5014842;28;20029;-84
2023/03/12 01:47:22;;;;;;;16.43;7.13;;;;;;;;;;5016057;28;20490;-86
2023/03/12 01:49:51;;;;;;;16.83;8.53;;;;;;;;;;5015975;28;20064;-84
2023/03/12 01:52:23;;;;;;;16.30;7.33;;;;;;;;;;5014961;28;20026;-86
2023/03/12 01:55:00;;;;;;;14.10;8.27;;;;;;;;;;5015049;28;20101;-85
2023/03/12 01:57:33;;;;;;;19.93;7.10;;;;;;;;;;5014867;28;20022;-87
2023/03/12 02:00:04;;;;;;;15.87;7.20;;;;;;;;;;5016897;28;20030;-80
2023/03/12 02:02:30;;;;;;;16.20;7.87;;;;;;;;;;5016081;28;20116;-84
2023/03/12 02:05:07;;;;;;;12.20;6.20;;;;;;;;;;5016197;28;20113;-84
2023/03/12 02:07:34;;;;;;;14.50;6.70;;;;;;;;;;5015271;28;20037;-84
2023/03/12 02:10:00;;;;;;;15.07;6.63;;;;;;;;;;5015502;28;20033;-80
2023/03/12 02:12:26;;;;;;;11.43;6.20;;;;;;;;;;5014649;28;20180;-84
2023/03/12 02:14:52;;;;;;;10.83;6.10;;;;;;;;;;4997665;28;20076;-82
2023/03/12 02:17:17;;;;;;;13.23;6.10;;;;;;;;;;5014905;28;20053;-85
2023/03/12 02:20:17;;;;;;;14.63;6.20;;;;;;;;;;5015442;28;20026;-84
2023/03/12 02:22:50;;;;;;;10.80;6.00;;;;;;;;;;5015151;28;20022;-85
2023/03/12 02:25:34;;;;;;;13.83;6.70;;;;;;;;;;5016693;28;20026;-85
2023/03/12 02:28:03;;;;;;;16.37;5.70;;;;;;;;;;5014919;28;20105;-81
2023/03/12 02:30:30;;;;;;;10.93;6.10;;;;;;;;;;5015951;28;20044;-85
2023/03/12 02:32:58;;;;;;;11.27;4.73;;;;;;;;;;5016114;28;20022;-85
2023/03/12 02:35:24;;;;;;;10.83;4.80;;;;;;;;;;5013665;28;20389;-85
2023/03/12 02:37:51;;;;;;;14.77;7.00;;;;;;;;;;5015462;28;20013;-85
2023/03/12 02:40:24;;;;;;;14.20;5.20;;;;;;;;;;5000538;28;20046;-82
2023/03/12 02:42:52;;;;;;;9.83;5.60;;;;;;;;;;4999409;28;20041;-83
2023/03/12 02:45:18;;;;;;;15.13;6.03;;;;;;;;;;5012765;28;20038;-86
2023/03/12 02:47:44;;;;;;;14.93;5.63;;;;;;;;;;5015276;28;20157;-85
2023/03/12 02:50:10;;;;;;;12.90;5.80;;;;;;;;;;5014458;28;20040;-84
2023/03/12 02:52:37;;;;;;;16.50;6.10;;;;;;;;;;5016337;28;20040;-84
2023/03/12 02:55:03;;;;;;;13.07;5.43;;;;;;;;;;5015236;28;20409;-84
2023/03/12 02:57:29;;;;;;;11.03;5.90;;;;;;;;;;5014319;28;20414;-84
2023/03/12 02:59:55;;;;;;;17.90;5.87;;;;;;;;;;5014339;28;20034;-85
2023/03/12 03:02:20;;;;;;;12.67;5.67;;;;;;;;;;5015820;28;20044;-86
2023/03/12 03:04:46;;;;;;;19.90;6.37;;;;;;;;;;5014222;28;20489;-85
2023/03/12 03:07:13;;;;;;;14.03;5.83;;;;;;;;;;5014300;28;20037;-82
2023/03/12 03:09:39;;;;;;;10.97;5.23;;;;;;;;;;5014249;28;20060;-85
2023/03/12 03:12:05;;;;;;;14.17;6.20;;;;;;;;;;5014454;28;20018;-86
2023/03/12 03:14:31;;;;;;;15.00;5.43;;;;;;;;;;5013674;28;20034;-85
2023/03/12 03:16:56;;;;;;;14.50;5.33;;;;;;;;;;5014051;28;20033;-84
2023/03/12 03:19:22;;;;;;;13.40;6.10;;;;;;;;;;5013325;28;20042;-80
2023/03/12 03:21:48;;;;;;;12.13;5.30;;;;;;;;;;5014771;28;20411;-83
2023/03/12 03:24:13;;;;;;;13.63;4.83;;;;;;;;;;5014399;28;20036;-85
2023/03/12 03:26:39;;;;;;;10.27;5.23;;;;;;;;;;5015517;28;20022;-84
2023/03/12 03:29:05;;;;;;;10.60;5.33;;;;;;;;;;5012923;28;20057;-85
2023/03/12 03:31:30;;;;;;;16.27;5.50;;;;;;;;;;5013981;28;20049;-85
2023/03/12 03:33:56;;;;;;;10.33;5.27;;;;;;;;;;5014286;28;20037;-85
2023/03/12 03:36:22;;;;;;;10.60;4.83;;;;;;;;;;5015112;28;20021;-85
2023/03/12 03:38:49;;;;;;;9.63;4.30;;;;;;;;;;5015769;28;20147;-85
2023/03/12 03:41:19;;;;;;;12.27;5.60;;;;;;;;;;5013475;28;20049;-85
2023/03/12 03:43:46;;;;;;;12.23;5.53;;;;;;;;;;4997651;28;20125;-85
2023/03/12 03:46:13;;;;;;;13.23;4.57;;;;;;;;;;5015903;28;20072;-85
2023/03/12 03:48:39;;;;;;;10.60;5.37;;;;;;;;;;5015507;28;20014;-86
2023/03/12 03:51:09;;;;;;;13.43;4.33;;;;;;;;;;5015477;28;20030;-84
2023/03/12 03:53:35;;;;;;;12.80;5.10;;;;;;;;;;5021899;28;20024;-85
2023/03/12 03:56:09;;;;;;;7.77;5.00;;;;;;;;;;5001312;28;20022;-84
2023/03/12 03:58:34;;;;;;;9.33;5.07;;;;;;;;;;5014248;28;20026;-84
2023/03/12 04:01:00;;;;;;;7.53;4.47;;;;;;;;;;5015568;28;20394;-84
2023/03/12 04:03:25;;;;;;;9.60;4.63;;;;;;;;;;5016014;28;20045;-83
2023/03/12 04:05:58;;;;;;;10.60;4.97;;;;;;;;;;5015793;28;20030;-85
2023/03/12 04:08:24;;;;;;;6.43;4.70;;;;;;;;;;5028444;28;20052;-85
2023/03/12 04:10:49;;;;;;;20.03;6.30;;;;;;;;;;5018687;28;20034;-82
2023/03/12 04:13:15;;;;;;;8.00;4.30;;;;;;;;;;5017132;28;20036;-85
2023/03/12 04:15:53;;;;;;;12.60;5.57;;;;;;;;;;5016082;28;20040;-84
2023/03/12 04:18:19;;;;;;;13.30;5.07;;;;;;;;;;5016219;28;20026;-86
2023/03/12 04:20:44;;;;;;;17.60;5.43;;;;;;;;;;5016111;28;20394;-84
2023/03/12 04:23:10;;;;;;;12.33;4.53;;;;;;;;;;5018092;28;20055;-83
2023/03/12 04:25:37;;;;;;;8.77;4.67;;;;;;;;;;5018163;28;20033;-84
2023/03/12 04:28:03;;;;;;;10.23;4.30;;;;;;;;;;5016400;28;20040;-84
2023/03/12 04:30:28;;;;;;;10.57;4.70;;;;;;;;;;5017836;28;20065;-85
2023/03/12 04:32:54;;;;;;;11.23;4.20;;;;;;;;;;5017673;28;20038;-84
2023/03/12 04:35:19;;;;;;;16.13;5.87;;;;;;;;;;5017874;28;20069;-85
2023/03/12 04:37:45;;;;;;;8.73;4.50;;;;;;;;;;5018568;28;20029;-80
2023/03/12 04:40:11;;;;;;;12.10;4.53;;;;;;;;;;5016594;28;20054;-85
2023/03/12 04:42:38;;;;;;;11.13;3.93;;;;;;;;;;5016867;28;20291;-85
2023/03/12 04:45:05;;;;;;;8.37;4.10;;;;;;;;;;5018241;28;20049;-84
2023/03/12 04:47:32;;;;;;;7.43;4.80;;;;;;;;;;5018066;28;20034;-85
2023/03/12 04:49:57;;;;;;;14.70;4.80;;;;;;;;;;5018225;28;20037;-82
2023/03/12 04:52:24;;;;;;;12.10;4.97;;;;;;;;;;5016906;28;20037;-84
2023/03/12 04:54:49;;;;;;;8.67;4.33;;;;;;;;;;5014567;28;20038;-85
2023/03/12 04:57:15;;;;;;;8.83;4.20;;;;;;;;;;5032640;28;20523;-83
2023/03/12 04:59:41;;;;;;;13.13;4.57;;;;;;;;;;5016268;28;20033;-86
2023/03/12 05:02:07;;;;;;;11.40;4.50;;;;;;;;;;5024656;28;20037;-86
2023/03/12 05:04:32;;;;;;;8.60;4.33;;;;;;;;;;5025040;28;20030;-81
2023/03/12 05:06:58;;;;;;;9.10;3.67;;;;;;;;;;5015051;28;20048;-83
2023/03/12 05:09:23;;;;;;;9.23;4.23;;;;;;;;;;5008819;28;20049;-86
2023/03/12 05:11:49;;;;;;;12.37;5.57;;;;;;;;;;5017291;28;20408;-84
2023/03/12 05:14:15;;;;;;;8.53;4.10;;;;;;;;;;5019445;28;20594;-85
2023/03/12 05:16:40;;;;;;;10.30;4.33;;;;;;;;;;5019721;28;20437;-83
2023/03/12 05:19:08;;;;;;;9.87;4.50;;;;;;;;;;5017019;28;20045;-84
2023/03/12 05:21:33;;;;;;;9.27;4.40;;;;;;;;;;5018963;28;20022;-85
2023/03/12 05:23:59;;;;;;;9.93;5.73;;;;;;;;;;5018297;28;20093;-84
2023/03/12 05:26:33;;;;;;;17.13;5.43;;;;;;;;;;5017235;28;20037;-83
2023/03/12 05:29:00;;;;;;;8.97;5.07;;;;;;;;;;5018706;28;20022;-86
2023/03/12 05:31:27;;;;;;;15.93;5.20;;;;;;;;;;5017197;28;20041;-86
2023/03/12 05:33:53;;;;;;;15.63;5.10;;;;;;;;;;5018160;28;20030;-84
2023/03/12 05:36:19;;;;;;;11.77;4.97;;;;;;;;;;5018072;28;20065;-85
2023/03/12 05:38:45;;;;;;;7.80;4.67;;;;;;;;;;5014131;28;20026;-85
2023/03/12 05:41:20;;;;;;;10.33;4.33;;;;;;;;;;4996615;28;20045;-83
2023/03/12 05:43:45;;;;;;;8.67;4.50;;;;;;;;;;4993936;28;20030;-79
2023/03/12 05:46:11;;;;;;;9.47;4.63;;;;;;;;;;5010238;28;20023;-85
2023/03/12 05:48:36;;;;;;;8.00;4.23;;;;;;;;;;4997604;28;20057;-86
2023/03/12 05:51:02;;;;;;;8.67;4.37;;;;;;;;;;5016311;28;20063;-85
2023/03/12 05:53:28;;;;;;;9.43;4.00;;;;;;;;;;5016986;28;20029;-86
2023/03/12 05:55:53;;;;;;;12.23;4.50;;;;;;;;;;5015260;28;20025;-81
2023/03/12 05:58:19;;;;;;;9.60;5.63;;;;;;;;;;5015749;28;20021;-84
2023/03/12 06:00:44;;;;;;;8.70;3.93;;;;;;;;;;5015859;28;20030;-85
2023/03/12 06:03:11;;;;;;;8.77;4.43;;;;;;;;;;5017447;28;20038;-86
2023/03/12 06:05:37;;;;;;;14.43;5.27;;;;;;;;;;5016727;28;20041;-85
2023/03/12 06:08:03;;;;;;;13.30;4.60;;;;;;;;;;5016065;28;20030;-84
2023/03/12 06:10:29;;;;;;;10.57;4.47;;;;;;;;;;4998723;28;20049;-85
2023/03/12 06:12:56;;;;;;;9.07;5.03;;;;;;;;;;5017029;28;20030;-86
2023/03/12 06:15:21;;;;;;;12.60;5.23;;;;;;;;;;5018413;28;20343;-85
2023/03/12 06:17:47;;;;;;;8.43;4.27;;;;;;;;;;5015479;28;20029;-85
2023/03/12 06:20:12;;;;;;;17.53;5.07;;;;;;;;;;5016562;28;20034;-85
2023/03/12 06:22:38;;;;;;;10.77;4.57;;;;;;;;;;5014836;28;20036;-85
2023/03/12 06:25:04;;;;;;;9.10;4.53;;;;;;;;;;5016481;28;20056;-84
2023/03/12 06:27:30;;;;;;;10.63;4.70;;;;;;;;;;5015047;28;20026;-87
2023/03/12 06:29:56;;;;;;;11.77;5.00;;;;;;;;;;5016075;28;20115;-87
2023/03/12 06:32:21;;;;;;;10.43;4.43;;;;;;;;;;5016129;28;20543;-86
2023/03/12 06:34:47;;;;;;;25.37;6.20;;;;;;;;;;5016040;28;20046;-86
2023/03/12 06:37:12;;;;;;;16.17;5.33;;;;;;;;;;5016936;28;20151;-86
2023/03/12 06:39:38;;;;;;;10.47;5.03;;;;;;;;;;5016512;28;20089;-86
2023/03/12 06:42:04;;;;;;;22.67;5.87;;;;;;;;;;5016427;28;20405;-84
2023/03/12 06:44:30;;;;;;;10.10;5.07;;;;;;;;;;5016745;28;20081;-84
2023/03/12 06:46:59;;;;;;;12.07;4.23;;;;;;;;;;4998475;28;20358;-87
2023/03/12 06:49:26;;;;;;;16.07;5.97;;;;;;;;;;5016510;28;20037;-86
2023/03/12 06:51:52;;;;;;;10.20;5.33;;;;;;;;;;5015702;28;20034;-85
2023/03/12 06:54:17;;;;;;;7.83;4.83;;;;;;;;;;5015140;28;20037;-86
2023/03/12 06:56:43;;;;;;;13.93;4.90;;;;;;;;;;5015371;28;20030;-84
2023/03/12 06:59:08;;;;;;;11.53;4.60;;;;;;;;;;5016876;28;20109;-86
2023/03/12 07:01:34;;;;;;;13.53;4.97;;;;;;;;;;5016632;28;20117;-86
2023/03/12 07:03:59;;;;;;;11.70;5.77;;;;;;;;;;5014978;28;20101;-86
2023/03/12 07:06:25;;;;;;;5.57;4.67;;;;;;;;;;5015368;28;20498;-86
2023/03/12 07:08:51;;;;;;;9.07;5.23;;;;;;;;;;5018524;28;20045;-85
2023/03/12 07:11:17;;;;;;;9.87;5.37;;;;;;;;;;5017752;28;20373;-87
2023/03/12 07:13:43;;;;;;;13.27;6.13;;;;;;;;;;5015115;28;20022;-87
2023/03/12 07:16:09;;;;;;;13.70;5.43;;;;;;;;;;5015141;28;20052;-86
2023/03/12 07:18:35;;;;;;;13.57;6.33;;;;;;;;;;5015590;28;20025;-85
2023/03/12 07:21:01;;;;;;;11.23;5.00;;;;;;;;;;5014885;28;20383;-85
2023/03/12 07:23:27;;;;;;;16.40;5.13;;;;;;;;;;5015978;28;20074;-86
2023/03/12 07:25:53;;;;;;;9.00;4.93;;;;;;;;;;5016439;28;20040;-85
2023/03/12 07:28:19;;;;;;;12.40;5.83;;;;;;;;;;5017670;28;20022;-82
2023/03/12 07:30:49;;;;;;;13.47;5.53;;;;;;;;;;5015100;28;20026;-85
2023/03/12 07:33:16;;;;;;;11.97;4.60;;;;;;;;;;5015436;28;20097;-84
2023/03/12 07:35:42;;;;;;;10.10;5.50;;;;;;;;;;5015018;28;20034;-86
2023/03/12 07:38:08;;;;;;;9.70;5.03;;;;;;;;;;5016920;28;20113;-86
2023/03/12 07:40:35;;;;;;;10.07;4.97;;;;;;;;;;5015189;28;20054;-85
2023/03/12 07:43:01;;;;;;;14.67;5.33;;;;;;;;;;5020385;28;20081;-84
2023/03/12 07:45:27;;;;;;;13.93;5.90;;;;;;;;;;5018644;28;20040;-84
2023/03/12 07:47:52;;;;;;;15.30;5.63;;;;;;;;;;5025701;28;20010;-87
2023/03/12 07:50:18;;;;;;;15.80;6.20;;;;;;;;;;5023205;28;20455;-84
2023/03/12 07:52:44;;;;;;;11.57;5.80;;;;;;;;;;5021811;28;20443;-83
2023/03/12 07:55:11;;;;;;;13.00;5.60;;;;;;;;;;5021941;28;20029;-85
2023/03/12 07:57:37;;;;;;;10.27;5.17;;;;;;;;;;5022649;28;20095;-85
2023/03/12 08:00:06;;;;;;;11.63;4.20;;;;;;;;;;5024780;28;20125;-85
2023/03/12 08:02:33;;;;;;;12.33;6.40;;;;;;;;;;5023199;28;20431;-83
2023/03/12 08:04:58;;;;;;;18.60;5.00;;;;;;;;;;5021485;28;20002;-84
2023/03/12 08:07:24;;;;;;;10.27;4.90;;;;;;;;;;5024408;28;20030;-85
2023/03/12 08:09:49;;;;;;;15.90;5.17;;;;;;;;;;5025323;28;20068;-85
2023/03/12 08:12:15;;;;;;;9.00;4.93;;;;;;;;;;5025158;28;20025;-86
2023/03/12 08:14:41;;;;;;;10.53;5.03;;;;;;;;;;5024868;28;20037;-84
2023/03/12 08:17:07;;;;;;;15.20;4.57;;;;;;;;;;5023564;28;20017;-85
2023/03/12 08:19:33;;;;;;;15.50;4.80;;;;;;;;;;5007349;28;20145;-83
2023/03/12 08:21:58;;;;;;;9.80;4.30;;;;;;;;;;5023539;28;20022;-83
2023/03/12 08:24:24;;;;;;;9.17;4.40;;;;;;;;;;5022228;28;20022;-85
2023/03/12 08:26:49;;;;;;;7.40;3.73;;;;;;;;;;5022215;28;20030;-85
2023/03/12 08:29:15;;;;;;;7.90;4.50;;;;;;;;;;5023542;28;20121;-85
2023/03/12 08:31:43;;;;;;;13.20;3.90;;;;;;;;;;5025126;28;20026;-84
2023/03/12 08:34:09;;;;;;;8.37;4.07;;;;;;;;;;5023122;28;20366;-86
2023/03/12 08:36:36;;;;;;;7.17;4.30;;;;;;;;;;5020844;28;20022;-82
2023/03/12 08:39:02;;;;;;;7.00;3.93;;;;;;;;;;5019716;28;20121;-87
2023/03/12 08:41:29;;;;;;;8.10;4.00;;;;;;;;;;5019892;28;20129;-85
2023/03/12 08:43:54;;;;;;;6.77;4.50;;;;;;;;;;5020490;28;20030;-86
2023/03/12 08:46:20;;;;;;;5.47;3.57;;;;;;;;;;5019044;28;20080;-85
2023/03/12 08:48:46;;;;;;;9.97;3.87;;;;;;;;;;5018869;28;20139;-84
2023/03/12 08:51:12;;;;;;;6.43;3.37;;;;;;;;;;5020512;28;20454;-87
2023/03/12 08:53:40;;;;;;;10.87;3.27;;;;;;;;;;5018924;28;20088;-87
2023/03/12 08:56:06;;;;;;;7.73;3.60;;;;;;;;;;5019604;28;20113;-83
2023/03/12 08:58:31;;;;;;;6.30;3.40;;;;;;;;;;5019510;28;20088;-85
2023/03/12 09:00:57;;;;;;;12.00;3.73;;;;;;;;;;5020827;28;20035;-85
2023/03/12 09:03:24;;;;;;;8.30;3.47;;;;;;;;;;5018753;28;20028;-85
2023/03/12 09:06:01;;;;;;;7.90;2.90;;;;;;;;;;5002373;28;20030;-84
2023/03/12 09:08:26;;;;;;;5.47;2.50;;;;;;;;;;5018712;28;20046;-85
2023/03/12 09:10:52;;;;;;;6.70;2.93;;;;;;;;;;5019114;28;20037;-85
2023/03/12 09:13:17;;;;;;;5.67;2.63;;;;;;;;;;5018942;28;20096;-85
2023/03/12 09:15:43;;;;;;;5.30;2.87;;;;;;;;;;5018745;28;20129;-88
2023/03/12 09:18:09;;;;;;;7.00;2.80;;;;;;;;;;5020406;28;20010;-88
2023/03/12 09:20:34;;;;;;;9.07;3.07;;;;;;;;;;5019269;28;20440;-87
2023/03/12 09:23:00;;;;;;;10.03;3.53;;;;;;;;;;5019528;28;20026;-86
2023/03/12 09:25:25;;;;;;;6.43;2.70;;;;;;;;;;5019820;28;20053;-85
2023/03/12 09:27:51;;;;;;;6.63;1.90;;;;;;;;;;5018913;28;20041;-87
2023/03/12 09:30:19;;;;;;;3.93;1.37;;;;;;;;;;5018260;28;20168;-85
2023/03/12 09:32:45;;;;;;;4.10;2.20;;;;;;;;;;5018228;28;20041;-87
2023/03/12 09:35:12;;;;;;;5.03;1.90;;;;;;;;;;5018145;28;20229;-86
2023/03/12 09:37:38;;;;;;;2.80;1.60;;;;;;;;;;5017946;28;20018;-85
2023/03/12 09:40:06;;;;;;;3.53;1.37;;;;;;;;;;5016575;28;20583;-86
2023/03/12 09:42:44;;;;;;;4.13;1.57;;;;;;;;;;5015782;28;20072;-87
2023/03/12 09:45:18;;;;;;;5.80;1.67;;;;;;;;;;5016264;28;20030;-86
2023/03/12 09:47:50;;;;;;;5.87;2.03;;;;;;;;;;5017291;28;20026;-87
2023/03/12 09:50:22;;;;;;;3.20;1.60;;;;;;;;;;5017639;28;20030;-87
2023/03/12 09:53:01;;;;;;;6.88;2.10;;;;;;;;;;5018529;28;20033;-84
2023/03/12 09:55:34;;;;;;;4.30;1.33;;;;;;;;;;5016043;28;20490;-86
2023/03/12 09:57:59;;;;;;;6.27;2.17;;;;;;;;;;5018322;28;20021;-84
2023/03/12 10:00:34;;;;;;;2.70;1.30;;;;;;;;;;5017274;28;20474;-87
2023/03/12 10:03:20;;;;;;;4.10;1.20;;;;;;;;;;5017986;28;20523;-86
2023/03/12 10:06:10;;;;;;;4.37;1.63;;;;;;;;;;5015219;28;20026;-86
2023/03/12 10:08:48;;;;;;;3.70;1.57;;;;;;;;;;5017220;28;20125;-86
2023/03/12 10:11:31;;;;;;;5.23;2.23;;;;;;;;;;5016837;28;20104;-86
2023/03/12 10:14:15;;;;;;;3.23;1.83;;;;;;;;;;5016091;28;20064;-87
2023/03/12 10:17:07;;;;;;;6.83;1.73;;;;;;;;;;5015011;28;20271;-86
2023/03/12 10:20:08;;;;;;;2.33;1.43;;;;;;;;;;5016313;28;20068;-86
2023/03/12 10:22:45;;;;;;;6.77;2.17;;;;;;;;;;5016851;28;20057;-87
2023/03/12 10:25:17;;;;;;;3.27;1.80;;;;;;;;;;5015937;28;20082;-85
2023/03/12 10:27:43;;;;;;;;;;;;;;;;;;5019540;28;20418;-85
2023/03/12 10:30:24;;;;;;;5.13;2.20;;;;;;;;;;5016687;28;19916;-84
2023/03/12 10:32:56;;;;;;;5.25;1.90;;;;;;;;;;5016559;28;20083;-86
2023/03/12 10:35:24;;;;;;;3.38;1.52;;;;;;;;;;5016330;28;20041;-87
2023/03/12 10:38:02;;;;;;;3.93;1.70;;;;;;;;;;5016608;28;20057;-83
2023/03/12 10:40:32;;;;;;;7.67;1.93;;;;;;;;;;5002589;28;20053;-86
2023/03/12 10:43:01;;;;;;;2.30;1.80;;;;;;;;;;5016540;28;20036;-85
2023/03/12 10:45:39;;;;;;;5.00;2.20;;;;;;;;;;5013950;28;20041;-87
2023/03/12 10:48:07;;;;;;;5.17;2.00;;;;;;;;;;5014804;28;20048;-83
2023/03/12 10:50:40;;;;;;;4.13;2.47;;;;;;;;;;5015755;28;20018;-86
2023/03/12 10:53:25;;;;;;;3.40;2.00;;;;;;;;;;5016219;28;20112;-85
2023/03/12 10:56:11;;;;;;;6.67;2.73;;;;;;;;;;5016313;28;20465;-84
2023/03/12 10:58:48;;;;;;;3.43;2.53;;;;;;;;;;5016422;28;20025;-86
2023/03/12 11:01:13;;;;;;;7.87;2.70;;;;;;;;;;5014893;28;20117;-84
2023/03/12 11:03:39;;;;;;;6.87;2.20;;;;;;;;;;5016231;28;20068;-85
2023/03/12 11:06:06;;;;;;;5.43;2.60;;;;;;;;;;5016185;28;20091;-86
2023/03/12 11:08:36;;;;;;;2.60;2.00;;;;;;;;;;4999391;28;20045;-84
2023/03/12 11:11:04;;;;;;;6.00;2.07;;;;;;;;;;5016294;28;20037;-85
2023/03/12 11:13:40;;;;;;;5.90;1.97;;;;;;;;;;5015777;28;20026;-85
2023/03/12 11:16:15;;;;;;;4.93;2.40;;;;;;;;;;5015443;28;20034;-84
2023/03/12 11:18:58;;;;;;;6.87;2.80;;;;;;;;;;5020066;28;20367;-85
2023/03/12 11:21:24;;;;;;;7.17;2.60;;;;;;;;;;5019677;28;20026;-86
2023/03/12 11:23:59;;;;;;;9.07;2.00;;;;;;;;;;5021624;28;20321;-87
2023/03/12 11:26:38;;;;;;;5.10;2.87;;;;;;;;;;5020210;28;20044;-86
2023/03/12 11:29:17;;;;;;;15.60;12.53;;;;;;;;;;5019443;28;20131;-86
2023/03/12 11:32:10;;;;;;;8.43;2.30;;;;;;;;;;5019708;28;20076;-86
2023/03/12 11:34:37;;;;;;;4.50;2.53;;;;;;;;;;5031307;28;20030;-86
2023/03/12 11:37:50;;;;;;;6.57;2.40;;;;;;;;;;5018739;28;20415;-85
2023/03/12 11:40:31;;;;;;;6.27;2.30;;;;;;;;;;5018187;28;20045;-84
2023/03/12 11:43:00;;;;;;;7.20;2.50;;;;;;;;;;5001367;28;20449;-87
2023/03/12 11:45:49;;;;;;;2.93;1.97;;;;;;;;;;5020043;28;20064;-86
2023/03/12 11:48:18;;;;;;;3.77;1.83;;;;;;;;;;5018454;28;20569;-84
2023/03/12 11:51:07;;;;;;;1.97;1.77;;;;;;;;;;5020468;28;20036;-87
2023/03/12 11:54:03;;;;;;;3.33;1.83;;;;;;;;;;5035529;28;20044;-87
2023/03/12 11:56:40;;;;;;;7.50;2.30;;;;;;;;;;5020210;28;20044;-85
2023/03/12 11:59:11;;;;;;;4.77;1.90;;;;;;;;;;5020653;28;20801;-86
2023/03/12 12:02:34;;;;;;;3.75;1.70;;;;;;;;;;5019585;28;20476;-86
2023/03/12 12:05:18;;;;;;;3.42;1.90;;;;;;;;;;5020884;28;20133;-85
2023/03/12 12:07:43;;;;;;;9.75;1.92;;;;;;;;;;5020250;28;20034;-86
2023/03/12 12:10:31;;;;;;;2.88;1.95;;;;;;;;;;5020528;28;20044;-83
2023/03/12 12:13:15;;;;;;;4.22;1.88;;;;;;;;;;5020641;28;20088;-86
2023/03/12 12:15:58;;;;;;;5.05;2.15;;;;;;;;;;5022255;28;20034;-87
2023/03/12 12:18:35;;;;;;;6.80;2.15;;;;;;;;;;5020917;28;20481;-85
2023/03/12 12:21:13;;;;;;;2.95;2.03;;;;;;;;;;5019118;28;20030;-85
2023/03/12 12:24:02;;;;;;;8.77;2.28;;;;;;;;;;5001319;28;20015;-87
2023/03/12 12:27:02;;;;;;;6.25;2.40;;;;;;;;;;5004704;28;20049;-86
2023/03/12 12:30:08;;;;;;;2.42;1.63;;;;;;;;;;5018996;28;20133;-86
2023/03/12 12:32:33;;;;;;;3.95;2.30;;;;;;;;;;5019981;28;20033;-85
2023/03/12 12:35:26;;;;;;;9.02;2.40;;;;;;;;;;5019374;28;20036;-86
2023/03/12 12:38:17;;;;;;;4.35;2.30;;;;;;;;;;5021658;28;20173;-87
2023/03/12 12:41:02;;;;;;;7.22;2.53;;;;;;;;;;5001299;28;20146;-86
2023/03/12 12:43:46;;;;;;;6.50;2.53;;;;;;;;;;5018443;28;20068;-87
2023/03/12 12:46:15;;;;;;;5.13;2.40;;;;;;;;;;5019868;28;20172;-86
2023/03/12 12:48:53;;;;;;;4.20;2.22;;;;;;;;;;5023014;28;20028;-88
2023/03/12 12:51:24;;;;;;;8.98;2.65;;;;;;;;;;5021763;28;20030;-86
2023/03/12 12:53:59;;;;;;;8.00;3.13;;;;;;;;;;5020621;28;20030;-86
2023/03/12 12:56:33;;;;;;;6.53;2.42;;;;;;;;;;5020150;28;20036;-87
2023/03/12 12:59:13;;;;;;;8.73;2.38;;;;;;;;;;5019528;28;20053;-86
2023/03/12 13:01:39;;;;;;;4.43;2.65;;;;;;;;;;5018181;28;20026;-88
2023/03/12 13:04:31;;;;;;;6.30;1.95;;;;;;;;;;5019707;28;20037;-85
2023/03/12 13:06:59;;;;;;;8.82;2.92;;;;;;;;;;5020101;28;20121;-84
2023/03/12 13:09:45;;;;;;;6.53;2.95;;;;;;;;;;5020672;28;20034;-86
2023/03/12 13:12:33;;;;;;;4.88;2.80;;;;;;;;;;5021367;28;20397;-85
2023/03/12 13:15:21;;;;;;;5.07;2.03;;;;;;;;;;5019898;28;20481;-87
2023/03/12 13:17:58;;;;;;;7.57;2.78;;;;;;;;;;5022702;28;20033;-87
2023/03/12 13:20:44;;;;;;;5.82;2.30;;;;;;;;;;5022166;28;20129;-87
2023/03/12 13:23:25;;;;;;;6.13;2.55;;;;;;;;;;5038810;28;20017;-86
2023/03/12 13:26:15;;;;;;;7.10;2.55;;;;;;;;;;5020125;28;20026;-85
2023/03/12 13:28:53;;;;;;;9.13;3.55;;;;;;;;;;5021847;28;20038;-83
2023/03/12 13:31:18;;;;;;;7.90;2.90;;;;;;;;;;5021815;28;20378;-87
2023/03/12 13:33:47;;;;;;;7.57;3.08;;;;;;;;;;5020794;28;20021;-87
2023/03/12 13:36:15;;;;;;;10.93;3.03;;;;;;;;;;5005305;28;20022;-85
2023/03/12 13:39:05;;;;;;;6.00;2.80;;;;;;;;;;5017278;28;20040;-87
2023/03/12 13:41:37;;;;;;;4.97;2.70;;;;;;;;;;5002265;28;20089;-85
2023/03/12 13:44:31;;;;;;;5.60;2.22;;;;;;;;;;5002657;28;20134;-87
2023/03/12 13:47:09;;;;;;;4.80;2.50;;;;;;;;;;5000162;28;20026;-87
2023/03/12 13:49:44;;;;;;;8.13;2.40;;;;;;;;;;5001880;28;20018;-86
2023/03/12 13:52:25;;;;;;;4.75;2.45;;;;;;;;;;5004292;28;20038;-86
2023/03/12 13:55:05;;;;;;;4.93;1.90;;;;;;;;;;5019664;28;20359;-88
2023/03/12 13:57:39;;;;;;;5.18;2.25;;;;;;;;;;5020370;28;20025;-87
2023/03/12 14:00:15;;;;;;;5.18;2.47;;;;;;;;;;5002425;28;20496;-84
2023/03/12 14:03:02;;;;;;;3.33;2.20;;;;;;;;;;5020419;28;20056;-86
2023/03/12 14:05:30;;;;;;;3.90;1.95;;;;;;;;;;5022163;28;20025;-85
2023/03/12 14:08:05;;;;;;;3.70;1.85;;;;;;;;;;5021559;28;20025;-88
2023/03/12 14:10:49;;;;;;;4.07;2.10;;;;;;;;;;5019896;28;20049;-87
2023/03/12 14:13:24;;;;;;;3.30;1.83;;;;;;;;;;5021425;28;20026;-86
2023/03/12 14:16:12;;;;;;;6.77;2.40;;;;;;;;;;5021642;28;20072;-87
2023/03/12 14:18:42;;;;;;;5.95;3.38;;;;;;;;;;5018416;28;20143;-86
2023/03/12 14:21:13;;;;;;;8.80;2.55;;;;;;;;;;5019748;28;20034;-86
2023/03/12 14:23:45;;;;;;;6.00;2.42;;;;;;;;;;5036660;28;20489;-83
2023/03/12 14:26:24;;;;;;;;;;;;;;;;;;5021961;28;20429;-86
2023/03/12 14:29:20;;;;;;;7.07;2.67;;;;;;;;;;5019701;28;19913;-85
2023/03/12 14:31:48;;;;;;;8.67;2.20;;;;;;;;;;5026646;28;20056;-87
2023/03/12 14:34:22;;;;;;;9.53;2.20;;;;;;;;;;5003124;28;20020;-85
2023/03/12 14:37:08;;;;;;;3.70;2.63;;;;;;;;;;5020006;28;20025;-86
2023/03/12 14:39:41;;;;;;;6.77;2.63;;;;;;;;;;5011141;28;20013;-84
2023/03/12 14:42:07;;;;;;;4.97;2.10;;;;;;;;;;5019644;28;20037;-85
2023/03/12 14:44:36;;;;;;;5.77;2.37;;;;;;;;;;5019941;28;20028;-85
2023/03/12 14:47:10;;;;;;;3.67;2.30;;;;;;;;;;5019764;28;20033;-82
2023/03/12 14:49:42;;;;;;;7.93;2.33;;;;;;;;;;5017422;28;20119;-86
2023/03/12 14:52:23;;;;;;;4.47;2.30;;;;;;;;;;5014470;28;20025;-85
2023/03/12 14:55:00;;;;;;;6.77;2.50;;;;;;;;;;5015750;28;20018;-84
2023/03/12 14:57:27;;;;;;;5.40;2.20;;;;;;;;;;5001788;28;20029;-86